createdAt,value
2019-03-24T00:01:52.583Z,101291.92
2019-03-24T00:04:54.493Z,101291.59
2019-03-24T00:07:56.961Z,101280.50
2019-03-24T00:10:59.059Z,101279.91
2019-03-24T00:14:00.971Z,101278.52
2019-03-24T00:17:02.862Z,101276.23
2019-03-24T00:20:05.748Z,101276.77
2019-03-24T00:23:07.639Z,101274.03
2019-03-24T00:26:09.557Z,101266.78
2019-03-24T00:29:11.591Z,101268.64
2019-03-24T00:32:13.529Z,101272.16
2019-03-24T00:35:15.640Z,101278.02
2019-03-24T00:38:17.541Z,101284.97
2019-03-24T00:41:19.510Z,101288.68
2019-03-24T00:44:21.381Z,101294.51
2019-03-24T00:47:23.316Z,101297.48
2019-03-24T00:50:25.234Z,101295.68
2019-03-24T00:53:27.148Z,101297.94
2019-03-24T00:56:29.092Z,101300.63
2019-03-24T00:59:31.032Z,101313.17
2019-03-24T01:02:33.026Z,101315.52
2019-03-24T01:05:34.986Z,101307.45
2019-03-24T01:08:36.845Z,101314.45
2019-03-24T01:11:38.742Z,101315.70
2019-03-24T01:14:40.663Z,101312.50
2019-03-24T01:17:42.550Z,101314.45
2019-03-24T01:20:44.440Z,101315.25
2019-03-24T01:23:46.364Z,101317.63
2019-03-24T01:26:48.339Z,101317.44
2019-03-24T01:29:50.172Z,101322.08
2019-03-24T01:32:52.208Z,101318.91
2019-03-24T01:35:55.138Z,101317.00
2019-03-24T01:38:56.989Z,101313.59
2019-03-24T01:41:58.863Z,101315.66
2019-03-24T01:45:01.339Z,101311.86
2019-03-24T01:48:03.428Z,101316.74
2019-03-24T01:51:05.346Z,101309.56
2019-03-24T01:54:07.220Z,101309.11
2019-03-24T01:57:09.346Z,101304.34
2019-03-24T02:00:11.423Z,101305.25
2019-03-24T02:03:13.658Z,101304.53
2019-03-24T02:06:15.541Z,101297.51
2019-03-24T02:09:17.539Z,101298.28
2019-03-24T02:12:20.507Z,101303.59
2019-03-24T02:15:22.541Z,101300.66
2019-03-24T02:18:24.366Z,101297.97
2019-03-24T02:21:28.094Z,101299.39
2019-03-24T02:24:29.976Z,101295.28
2019-03-24T02:27:31.977Z,101297.77
2019-03-24T02:30:33.892Z,101299.39
2019-03-24T02:33:35.908Z,101297.71
2019-03-24T02:36:38.119Z,101301.34
2019-03-24T02:39:39.970Z,101304.68
2019-03-24T02:42:41.849Z,101292.54
2019-03-24T02:45:44.145Z,101303.40
2019-03-24T02:48:46.107Z,101302.63
2019-03-24T02:51:47.983Z,101301.05
2019-03-24T02:54:49.870Z,101297.42
2019-03-24T02:57:51.723Z,101293.31
2019-03-24T03:00:53.648Z,101296.59
2019-03-24T03:03:55.574Z,101293.03
2019-03-24T03:06:57.499Z,101290.68
2019-03-24T03:09:59.340Z,101291.73
2019-03-24T03:13:01.244Z,101290.73
2019-03-24T03:16:03.189Z,101284.59
2019-03-24T03:19:05.092Z,101286.17
2019-03-24T03:22:06.932Z,101286.66
2019-03-24T03:25:09.690Z,101286.17
2019-03-24T03:28:11.577Z,101292.20
2019-03-24T03:31:13.502Z,101279.20
2019-03-24T03:34:15.449Z,101280.85
2019-03-24T03:37:17.387Z,101277.83
2019-03-24T03:40:20.180Z,101280.85
2019-03-24T03:43:22.081Z,101277.05
2019-03-24T03:46:24.057Z,101275.69
2019-03-24T03:49:25.974Z,101277.94
2019-03-24T03:52:28.188Z,101278.50
2019-03-24T03:55:30.062Z,101273.34
2019-03-24T03:58:31.921Z,101272.08
2019-03-24T04:01:33.870Z,101273.13
2019-03-24T04:04:36.057Z,101273.02
2019-03-24T04:07:38.046Z,101271.16
2019-03-24T04:10:39.890Z,101266.53
2019-03-24T04:13:41.791Z,101271.16
2019-03-24T04:16:43.660Z,101265.39
2019-03-24T04:19:45.620Z,101271.16
2019-03-24T04:22:47.545Z,101270.10
2019-03-24T04:25:49.502Z,101266.53
2019-03-24T04:28:51.419Z,101267.36
2019-03-24T04:31:53.320Z,101270.98
2019-03-24T04:34:55.227Z,101271.87
2019-03-24T04:37:57.195Z,101270.16
2019-03-24T04:40:59.117Z,101270.70
2019-03-24T04:44:01.096Z,101267.16
2019-03-24T04:47:03.026Z,101273.84
2019-03-24T04:50:07.060Z,101275.39
2019-03-24T04:53:09.562Z,101282.45
2019-03-24T04:56:11.465Z,101273.96
2019-03-24T04:59:13.367Z,101280.87
2019-03-24T05:02:15.331Z,101270.70
2019-03-24T05:05:17.228Z,101274.50
2019-03-24T05:08:19.151Z,101270.10
2019-03-24T05:11:21.031Z,101270.22
2019-03-24T05:14:22.947Z,101269.25
2019-03-24T05:17:27.321Z,101271.64
2019-03-24T05:20:29.016Z,101267.95
2019-03-24T05:23:30.911Z,101262.86
2019-03-24T05:26:32.827Z,101262.42
2019-03-24T05:29:34.687Z,101256.89
2019-03-24T05:32:36.903Z,101259.35
2019-03-24T05:35:38.831Z,101255.23
2019-03-24T05:38:40.795Z,101259.91
2019-03-24T05:41:42.716Z,101255.56
2019-03-24T05:44:44.671Z,101253.53
2019-03-24T05:47:46.583Z,101245.67
2019-03-24T05:50:48.520Z,101252.52
2019-03-24T05:53:50.873Z,101249.77
2019-03-24T05:56:52.781Z,101249.67
2019-03-24T05:59:54.761Z,101251.19
2019-03-24T06:02:57.400Z,101252.97
2019-03-24T06:05:59.405Z,101243.97
2019-03-24T06:09:01.271Z,101248.98
2019-03-24T06:12:03.355Z,101244.72
2019-03-24T06:15:07.130Z,101244.95
2019-03-24T06:18:09.036Z,101239.89
2019-03-24T06:21:10.980Z,101244.88
2019-03-24T06:24:13.008Z,101244.39
2019-03-24T06:27:14.909Z,101244.03
2019-03-24T06:30:17.416Z,101245.55
2019-03-24T06:33:19.267Z,101241.95
2019-03-24T06:36:21.343Z,101236.53
2019-03-24T06:39:23.272Z,101240.57
2019-03-24T06:42:25.117Z,101247.37
2019-03-24T06:45:28.669Z,101235.98
2019-03-24T06:48:30.738Z,101231.90
2019-03-24T06:51:32.589Z,101246.45
2019-03-24T06:54:34.492Z,101244.35
2019-03-24T06:57:36.337Z,101243.02
2019-03-24T07:00:38.226Z,101243.58
2019-03-24T07:03:41.185Z,101245.48
2019-03-24T07:06:43.116Z,101248.80
2019-03-24T07:09:45.002Z,101248.55
2019-03-24T07:12:47.168Z,101244.11
2019-03-24T07:15:49.057Z,101242.45
2019-03-24T07:18:50.938Z,101239.95
2019-03-24T07:21:52.808Z,101238.03
2019-03-24T07:24:54.687Z,101233.89
2019-03-24T07:27:56.618Z,101238.88
2019-03-24T07:30:58.614Z,101228.62
2019-03-24T07:34:00.491Z,101233.61
2019-03-24T07:37:02.540Z,101228.90
2019-03-24T07:40:07.411Z,101225.59
2019-03-24T07:43:09.345Z,101219.48
2019-03-24T07:46:11.273Z,101221.16
2019-03-24T07:49:13.102Z,101216.70
2019-03-24T07:52:15.072Z,101214.47
2019-03-24T07:55:16.991Z,101215.02
2019-03-24T07:58:18.833Z,101216.64
2019-03-24T08:01:20.751Z,101222.42
2019-03-24T08:04:22.607Z,101215.78
2019-03-24T08:07:24.626Z,101224.55
2019-03-24T08:10:26.499Z,101207.16
2019-03-24T08:13:29.456Z,101205.55
2019-03-24T08:16:31.428Z,101204.77
2019-03-24T08:19:33.309Z,101208.64
2019-03-24T08:22:35.183Z,101203.70
2019-03-24T08:25:37.139Z,101194.61
2019-03-24T08:28:39.027Z,101183.59
2019-03-24T08:31:40.981Z,101183.00
2019-03-24T08:34:42.862Z,101178.33
2019-03-24T08:37:44.804Z,101175.28
2019-03-24T08:40:46.789Z,101174.17
2019-03-24T08:43:48.903Z,101177.22
2019-03-24T08:46:50.822Z,101173.29
2019-03-24T08:49:52.779Z,101169.06
2019-03-24T08:52:54.733Z,101161.00
2019-03-24T08:55:56.622Z,101165.48
2019-03-24T08:58:58.497Z,101162.19
2019-03-24T09:02:00.450Z,101150.23
2019-03-24T09:05:04.029Z,101144.45
2019-03-24T09:08:07.388Z,101138.59
2019-03-24T09:11:09.293Z,101130.28
2019-03-24T09:14:11.265Z,101122.88
2019-03-24T09:17:13.222Z,101118.77
2019-03-24T09:20:15.229Z,101121.05
2019-03-24T09:23:17.191Z,101126.59
2019-03-24T09:26:19.151Z,101124.66
2019-03-24T09:29:21.671Z,101123.55
2019-03-24T09:32:23.730Z,101121.63
2019-03-24T09:35:25.729Z,101118.31
2019-03-24T09:38:27.715Z,101116.09
2019-03-24T09:41:29.793Z,101117.77
2019-03-24T09:44:31.757Z,101109.00
2019-03-24T09:47:34.183Z,101105.44
2019-03-24T09:50:36.079Z,101097.66
2019-03-24T09:53:38.091Z,101099.95
2019-03-24T09:56:40.034Z,101092.38
2019-03-24T09:59:42.994Z,101083.59
2019-03-24T10:02:44.893Z,101079.56
2019-03-24T10:05:46.846Z,101082.43
2019-03-24T10:08:48.771Z,101066.72
2019-03-24T10:11:50.734Z,101063.54
2019-03-24T10:14:52.688Z,101059.58
2019-03-24T10:17:54.580Z,101053.19
2019-03-24T10:20:56.602Z,101045.06
2019-03-24T10:23:58.550Z,101039.31
2019-03-24T10:27:01.485Z,101037.39
2019-03-24T10:30:08.066Z,101035.43
2019-03-24T10:33:09.998Z,101029.30
2019-03-24T10:36:12.037Z,101025.47
2019-03-24T10:39:14.031Z,101027.12
2019-03-24T10:42:16.076Z,101024.29
2019-03-24T10:45:18.025Z,101011.11
2019-03-24T10:48:19.938Z,101011.03
2019-03-24T10:51:22.489Z,101010.36
2019-03-24T10:54:24.358Z,101004.52
2019-03-24T10:57:26.287Z,101003.09
2019-03-24T11:00:41.578Z,100998.41
2019-03-24T11:03:44.019Z,100994.80
2019-03-24T11:06:45.955Z,100993.88
2019-03-24T11:09:49.162Z,100982.17
2019-03-24T11:12:52.211Z,100975.50
2019-03-24T11:15:54.165Z,100969.63
2019-03-24T11:18:56.082Z,100961.31
2019-03-24T11:21:58.157Z,100956.28
2019-03-24T11:25:00.302Z,100951.28
2019-03-24T11:28:02.280Z,100950.44
2019-03-24T11:31:04.224Z,100951.97
2019-03-24T11:34:06.159Z,100942.98
2019-03-24T11:37:08.122Z,100941.14
2019-03-24T11:40:10.634Z,100935.73
2019-03-24T11:43:12.770Z,100926.62
2019-03-24T11:46:14.629Z,100918.30
2019-03-24T11:49:17.476Z,100921.90
2019-03-24T11:52:19.474Z,100918.56
2019-03-24T11:55:21.444Z,100907.87
2019-03-24T11:58:23.461Z,100909.45
2019-03-24T12:01:25.434Z,100901.16
2019-03-24T12:04:27.340Z,100887.19
2019-03-24T12:07:29.225Z,100876.92
2019-03-24T12:10:31.261Z,100875.27
2019-03-24T12:13:34.617Z,100870.39
2019-03-24T12:16:36.597Z,100861.13
2019-03-24T12:19:38.554Z,100852.82
2019-03-24T12:22:40.525Z,100853.70
2019-03-24T12:25:42.543Z,100851.52
2019-03-24T12:28:44.378Z,100843.06
2019-03-24T12:31:46.331Z,100837.09
2019-03-24T12:34:48.304Z,100821.84
2019-03-24T12:37:50.267Z,100830.75
2019-03-24T12:40:52.269Z,100815.83
2019-03-24T12:43:54.335Z,100812.01
2019-03-24T12:46:56.258Z,100821.42
2019-03-24T12:50:08.261Z,100810.08
2019-03-24T12:53:02.697Z,100808.16
2019-03-24T12:56:04.727Z,100802.73
2019-03-24T12:59:06.726Z,100791.57
2019-03-24T13:02:08.740Z,100790.33
2019-03-24T13:05:11.957Z,100787.09
2019-03-24T13:08:15.994Z,100777.73
2019-03-24T13:11:19.079Z,100775.81
2019-03-24T13:14:21.066Z,100771.30
2019-03-24T13:17:22.982Z,100768.37
2019-03-24T13:20:37.741Z,100767.64
2019-03-24T13:23:28.740Z,100760.42
2019-03-24T13:26:30.855Z,100758.80
2019-03-24T13:29:32.762Z,100755.19
2019-03-24T13:32:34.686Z,100746.39
2019-03-24T13:35:36.624Z,100752.40
2019-03-24T13:38:38.576Z,100750.50
2019-03-24T13:41:40.561Z,100745.64
2019-03-24T13:44:42.601Z,100740.65
2019-03-24T13:47:44.534Z,100735.32
2019-03-24T13:50:46.459Z,100728.13
2019-03-24T13:53:48.410Z,100726.52
2019-03-24T13:56:50.372Z,100720.39
2019-03-24T13:59:52.281Z,100718.86
2019-03-24T14:02:54.427Z,100712.28
2019-03-24T14:05:56.324Z,100706.05
2019-03-24T14:08:58.376Z,100700.58
2019-03-24T14:12:01.213Z,100695.86
2019-03-24T14:15:05.022Z,100693.20
2019-03-24T14:18:06.973Z,100683.56
2019-03-24T14:21:08.938Z,100683.42
2019-03-24T14:24:10.866Z,100681.27
2019-03-24T14:27:12.811Z,100683.63
2019-03-24T14:30:15.191Z,100681.01
2019-03-24T14:33:17.096Z,100673.98
2019-03-24T14:36:19.057Z,100668.02
2019-03-24T14:39:21.003Z,100663.97
2019-03-24T14:42:22.997Z,100655.97
2019-03-24T14:45:25.099Z,100649.34
2019-03-24T14:48:27.056Z,100638.65
2019-03-24T14:51:29.019Z,100641.48
2019-03-24T14:54:30.986Z,100639.92
2019-03-24T14:57:32.925Z,100634.14
2019-03-24T15:00:37.164Z,100623.41
2019-03-24T15:03:39.104Z,100621.22
2019-03-24T15:06:41.063Z,100607.44
2019-03-24T15:09:42.982Z,100608.89
2019-03-24T15:12:45.035Z,100611.67
2019-03-24T15:15:46.997Z,100615.03
2019-03-24T15:18:49.016Z,100613.41
2019-03-24T15:21:50.978Z,100626.95
2019-03-24T15:24:52.889Z,100624.48
2019-03-24T15:27:54.841Z,100618.69
2019-03-24T15:30:56.733Z,100611.53
2019-03-24T15:33:58.743Z,100612.09
2019-03-24T15:37:00.611Z,100607.14
2019-03-24T15:40:04.282Z,100599.69
2019-03-24T15:43:06.264Z,100604.34
2019-03-24T15:46:08.181Z,100594.98
2019-03-24T15:49:10.117Z,100594.17
2019-03-24T15:52:12.036Z,100596.11
2019-03-24T15:55:13.957Z,100599.43
2019-03-24T15:58:15.842Z,100589.48
2019-03-24T16:01:17.778Z,100579.84
2019-03-24T16:04:19.645Z,100582.89
2019-03-24T16:07:21.669Z,100575.44
2019-03-24T16:10:34.700Z,100580.70
2019-03-24T16:13:28.143Z,100582.64
2019-03-24T16:16:30.104Z,100586.53
2019-03-24T16:19:32.000Z,100586.55
2019-03-24T16:22:33.960Z,100584.09
2019-03-24T16:25:37.630Z,100577.76
2019-03-24T16:28:40.582Z,100578.32
2019-03-24T16:31:42.459Z,100574.45
2019-03-24T16:34:44.411Z,100576.94
2019-03-24T16:37:46.345Z,100577.80
2019-03-24T16:40:48.292Z,100573.92
2019-03-24T16:43:50.256Z,100573.36
2019-03-24T16:46:52.297Z,100578.05
2019-03-24T16:49:55.839Z,100569.48
2019-03-24T16:52:58.645Z,100570.04
2019-03-24T16:56:02.800Z,100560.95
2019-03-24T16:59:06.060Z,100567.84
2019-03-24T17:02:13.174Z,100554.36
2019-03-24T17:05:17.991Z,100561.80
2019-03-24T17:08:23.748Z,100560.14
2019-03-24T17:11:25.943Z,100555.20
2019-03-24T17:14:29.707Z,100560.67
2019-03-24T17:17:32.695Z,100557.91
2019-03-24T17:20:35.019Z,100552.95
2019-03-24T17:23:37.269Z,100563.39
2019-03-24T17:26:41.560Z,100554.30
2019-03-24T17:29:43.589Z,100553.48
2019-03-24T17:32:45.512Z,100548.54
2019-03-24T17:35:47.532Z,100537.50
2019-03-24T17:38:49.432Z,100539.69
2019-03-24T17:41:51.703Z,100534.47
2019-03-24T17:44:53.666Z,100531.17
2019-03-24T17:47:55.782Z,100519.34
2019-03-24T17:50:57.955Z,100518.50
2019-03-24T17:54:00.290Z,100520.44
2019-03-24T17:57:02.346Z,100525.09
2019-03-24T18:00:09.721Z,100525.08
2019-03-24T18:03:11.629Z,100525.10
2019-03-24T18:06:15.758Z,100525.40
2019-03-24T18:09:17.939Z,100522.36
2019-03-24T18:12:20.067Z,100524.84
2019-03-24T18:15:24.534Z,100518.77
2019-03-24T18:18:26.655Z,100517.69
2019-03-24T18:21:30.435Z,100508.88
2019-03-24T18:24:32.601Z,100509.13
2019-03-24T18:27:34.487Z,100509.66
2019-03-24T18:30:38.141Z,100516.02
2019-03-24T18:33:40.149Z,100514.08
2019-03-24T18:36:42.538Z,100512.95
2019-03-24T18:39:44.433Z,100507.73
2019-03-24T18:42:48.118Z,100503.86
2019-03-24T18:45:50.107Z,100508.82
2019-03-24T18:48:53.849Z,100509.63
2019-03-24T18:51:56.161Z,100509.06
2019-03-24T18:54:58.080Z,100505.78
2019-03-24T18:58:00.432Z,100501.09
2019-03-24T19:01:02.281Z,100504.09
2019-03-24T19:04:04.214Z,100503.53
2019-03-24T19:07:07.976Z,100508.75
2019-03-24T19:10:14.418Z,100507.37
2019-03-24T19:13:19.449Z,100505.44
2019-03-24T19:16:25.116Z,100491.16
2019-03-24T19:19:29.158Z,100506.00
2019-03-24T19:22:33.862Z,100499.41
2019-03-24T19:25:35.046Z,100494.45
2019-03-24T19:28:37.901Z,100487.58
2019-03-24T19:31:41.577Z,100488.92
2019-03-24T19:34:44.482Z,100483.98
2019-03-24T19:37:46.697Z,100476.30
2019-03-24T19:40:48.983Z,100469.13
2019-03-24T19:43:52.888Z,100471.86
2019-03-24T19:46:56.870Z,100462.52
2019-03-24T19:50:01.639Z,100462.52
2019-03-24T19:53:03.654Z,100459.20
2019-03-24T19:56:05.568Z,100449.83
2019-03-24T19:59:09.374Z,100453.11
2019-03-24T20:02:11.444Z,100448.99
2019-03-24T20:05:18.630Z,100442.67
2019-03-24T20:08:21.254Z,100440.47
2019-03-24T20:11:26.719Z,100442.69
2019-03-24T20:14:29.530Z,100444.06
2019-03-24T20:17:34.895Z,100452.03
2019-03-24T20:20:36.954Z,100449.02
2019-03-24T20:23:40.657Z,100441.05
2019-03-24T20:26:42.980Z,100447.36
2019-03-24T20:29:45.039Z,100440.54
2019-03-24T20:32:48.950Z,100433.11
2019-03-24T20:35:51.493Z,100431.17
2019-03-24T20:38:55.628Z,100419.62
2019-03-24T20:41:58.159Z,100411.38
2019-03-24T20:45:02.231Z,100413.31
2019-03-24T20:48:05.665Z,100408.63
2019-03-24T20:51:08.388Z,100410.27
2019-03-24T20:54:10.350Z,100408.06
2019-03-24T20:57:12.256Z,100394.62
2019-03-24T21:00:15.983Z,100392.16
2019-03-24T21:03:19.833Z,100388.84
2019-03-24T21:06:21.668Z,100386.37
2019-03-24T21:09:23.601Z,100387.45
2019-03-24T21:12:25.488Z,100386.34
2019-03-24T21:15:27.450Z,100386.61
2019-03-24T21:18:29.378Z,100382.48
2019-03-24T21:21:31.264Z,100378.09
2019-03-24T21:24:33.179Z,100382.20
2019-03-24T21:27:35.130Z,100380.00
2019-03-24T21:30:39.084Z,100376.45
2019-03-24T21:33:41.003Z,100371.22
2019-03-24T21:36:43.022Z,100378.09
2019-03-24T21:39:45.873Z,100367.91
2019-03-24T21:42:47.823Z,100365.47
2019-03-24T21:45:49.722Z,100366.27
2019-03-24T21:48:51.732Z,100365.44
2019-03-24T21:51:55.443Z,100366.78
2019-03-24T21:54:57.402Z,100360.73
2019-03-24T21:57:59.354Z,100363.18
2019-03-24T22:01:01.363Z,100349.97
2019-03-24T22:04:03.244Z,100350.27
2019-03-24T22:07:05.121Z,100349.13
2019-03-24T22:10:07.040Z,100351.86
2019-03-24T22:13:08.929Z,100343.64
2019-03-24T22:16:10.781Z,100335.36
2019-03-24T22:19:12.905Z,100341.66
2019-03-24T22:22:14.766Z,100337.52
2019-03-24T22:25:16.689Z,100334.75
2019-03-24T22:28:18.552Z,100321.58
2019-03-24T22:31:20.461Z,100326.73
2019-03-24T22:34:22.329Z,100327.54
2019-03-24T22:37:24.195Z,100321.19
2019-03-24T22:40:26.111Z,100320.05
2019-03-24T22:43:27.961Z,100315.61
2019-03-24T22:46:29.856Z,100309.28
2019-03-24T22:49:31.768Z,100291.70
2019-03-24T22:52:33.694Z,100291.12
2019-03-24T22:55:35.566Z,100292.75
2019-03-24T22:58:37.434Z,100290.53
2019-03-24T23:01:39.312Z,100291.91
2019-03-24T23:04:41.168Z,100288.59
2019-03-24T23:07:43.006Z,100285.50
2019-03-24T23:10:44.903Z,100278.93
2019-03-24T23:13:46.742Z,100275.86
2019-03-24T23:16:48.650Z,100269.30
2019-03-24T23:19:51.152Z,100265.16
2019-03-24T23:22:53.036Z,100264.05
2019-03-24T23:25:54.935Z,100261.33
2019-03-24T23:28:56.823Z,100262.16
2019-03-24T23:31:59.776Z,100256.63
2019-03-24T23:35:01.659Z,100257.43
2019-03-24T23:38:03.540Z,100254.64
2019-03-24T23:41:05.423Z,100251.91
2019-03-24T23:44:07.375Z,100250.24
2019-03-24T23:47:09.226Z,100248.30
2019-03-24T23:50:11.446Z,100247.48
2019-03-24T23:53:13.453Z,100237.63
2019-03-24T23:56:16.483Z,100243.33
2019-03-24T23:59:18.328Z,100240.84
